sensor_id;sensor_type;location;lat;lon;timestamp;P1;durP1;ratioP1;P2;durP2;ratioP2
51949;SDS011;37974;53.218;6.640;2023-07-29T00:00:42;9.30;;;5.63;;
51949;SDS011;37974;53.218;6.640;2023-07-29T00:03:08;9.23;;;6.10;;
51949;SDS011;37974;53.218;6.640;2023-07-29T00:05:35;12.23;;;5.97;;
51949;SDS011;37974;53.218;6.640;2023-07-29T00:08:02;9.63;;;5.93;;
51949;SDS011;37974;53.218;6.640;2023-07-29T00:10:27;10.13;;;6.55;;
51949;SDS011;37974;53.218;6.640;2023-07-29T00:12:53;12.23;;;6.40;;
51949;SDS011;37974;53.218;6.640;2023-07-29T00:15:19;10.98;;;6.93;;
51949;SDS011;37974;53.218;6.640;2023-07-29T00:17:45;10.52;;;6.70;;
51949;SDS011;37974;53.218;6.640;2023-07-29T00:20:10;12.18;;;7.10;;
51949;SDS011;37974;53.218;6.640;2023-07-29T00:22:36;12.68;;;6.50;;
51949;SDS011;37974;53.218;6.640;2023-07-29T00:25:02;12.07;;;6.68;;
51949;SDS011;37974;53.218;6.640;2023-07-29T00:27:28;11.02;;;6.65;;
51949;SDS011;37974;53.218;6.640;2023-07-29T00:29:53;10.93;;;6.30;;
51949;SDS011;37974;53.218;6.640;2023-07-29T00:32:19;9.45;;;6.68;;
51949;SDS011;37974;53.218;6.640;2023-07-29T00:34:45;9.05;;;6.60;;
51949;SDS011;37974;53.218;6.640;2023-07-29T00:37:10;10.35;;;6.47;;
51949;SDS011;37974;53.218;6.640;2023-07-29T00:39:37;10.77;;;7.18;;
51949;SDS011;37974;53.218;6.640;2023-07-29T00:42:03;13.48;;;7.10;;
51949;SDS011;37974;53.218;6.640;2023-07-29T00:44:29;9.73;;;6.38;;
51949;SDS011;37974;53.218;6.640;2023-07-29T00:46:56;9.73;;;7.43;;
51949;SDS011;37974;53.218;6.640;2023-07-29T00:49:23;11.70;;;7.38;;
51949;SDS011;37974;53.218;6.640;2023-07-29T00:51:49;14.27;;;6.68;;
51949;SDS011;37974;53.218;6.640;2023-07-29T00:54:15;12.07;;;7.13;;
51949;SDS011;37974;53.218;6.640;2023-07-29T00:56:41;8.63;;;6.55;;
51949;SDS011;37974;53.218;6.640;2023-07-29T00:59:07;11.05;;;7.10;;
51949;SDS011;37974;53.218;6.640;2023-07-29T01:01:33;10.63;;;6.53;;
51949;SDS011;37974;53.218;6.640;2023-07-29T01:03:59;10.90;;;6.65;;
51949;SDS011;37974;53.218;6.640;2023-07-29T01:06:36;11.55;;;7.32;;
51949;SDS011;37974;53.218;6.640;2023-07-29T01:12:48;10.43;;;7.45;;
51949;SDS011;37974;53.218;6.640;2023-07-29T01:18:14;10.43;;;7.50;;
51949;SDS011;37974;53.218;6.640;2023-07-29T01:20:54;11.18;;;7.60;;
51949;SDS011;37974;53.218;6.640;2023-07-29T01:23:31;16.15;;;7.75;;
51949;SDS011;37974;53.218;6.640;2023-07-29T01:25:57;12.30;;;6.88;;
51949;SDS011;37974;53.218;6.640;2023-07-29T01:28:23;13.13;;;7.85;;
51949;SDS011;37974;53.218;6.640;2023-07-29T01:30:51;10.00;;;7.50;;
51949;SDS011;37974;53.218;6.640;2023-07-29T01:33:25;10.57;;;7.07;;
51949;SDS011;37974;53.218;6.640;2023-07-29T01:35:54;13.15;;;7.70;;
51949;SDS011;37974;53.218;6.640;2023-07-29T01:38:30;12.85;;;7.82;;
51949;SDS011;37974;53.218;6.640;2023-07-29T01:41:03;11.77;;;7.97;;
51949;SDS011;37974;53.218;6.640;2023-07-29T01:43:31;12.25;;;8.20;;
51949;SDS011;37974;53.218;6.640;2023-07-29T01:45:58;11.63;;;7.35;;
51949;SDS011;37974;53.218;6.640;2023-07-29T01:48:24;16.48;;;8.38;;
51949;SDS011;37974;53.218;6.640;2023-07-29T01:50:50;11.88;;;8.77;;
51949;SDS011;37974;53.218;6.640;2023-07-29T01:53:15;11.80;;;8.73;;
51949;SDS011;37974;53.218;6.640;2023-07-29T01:55:41;16.25;;;8.13;;
51949;SDS011;37974;53.218;6.640;2023-07-29T01:58:09;12.65;;;7.65;;
51949;SDS011;37974;53.218;6.640;2023-07-29T02:00:35;11.73;;;7.38;;
51949;SDS011;37974;53.218;6.640;2023-07-29T02:03:01;10.05;;;7.82;;
51949;SDS011;37974;53.218;6.640;2023-07-29T02:05:26;10.82;;;7.85;;
51949;SDS011;37974;53.218;6.640;2023-07-29T02:07:52;10.95;;;7.63;;
51949;SDS011;37974;53.218;6.640;2023-07-29T02:10:18;12.02;;;8.07;;
51949;SDS011;37974;53.218;6.640;2023-07-29T02:12:43;11.95;;;7.72;;
51949;SDS011;37974;53.218;6.640;2023-07-29T02:15:09;11.35;;;8.70;;
51949;SDS011;37974;53.218;6.640;2023-07-29T02:17:35;11.77;;;8.52;;
51949;SDS011;37974;53.218;6.640;2023-07-29T02:20:01;11.52;;;8.15;;
51949;SDS011;37974;53.218;6.640;2023-07-29T02:22:28;12.50;;;8.52;;
51949;SDS011;37974;53.218;6.640;2023-07-29T02:24:54;10.93;;;8.40;;
51949;SDS011;37974;53.218;6.640;2023-07-29T02:27:20;13.85;;;8.23;;
51949;SDS011;37974;53.218;6.640;2023-07-29T02:29:46;16.65;;;8.43;;
51949;SDS011;37974;53.218;6.640;2023-07-29T02:32:12;14.27;;;8.98;;
51949;SDS011;37974;53.218;6.640;2023-07-29T02:34:37;15.07;;;7.65;;
51949;SDS011;37974;53.218;6.640;2023-07-29T02:37:03;11.13;;;7.85;;
51949;SDS011;37974;53.218;6.640;2023-07-29T02:39:30;11.05;;;8.35;;
51949;SDS011;37974;53.218;6.640;2023-07-29T02:41:56;15.50;;;8.48;;
51949;SDS011;37974;53.218;6.640;2023-07-29T02:44:23;13.73;;;8.32;;
51949;SDS011;37974;53.218;6.640;2023-07-29T02:46:49;16.77;;;8.38;;
51949;SDS011;37974;53.218;6.640;2023-07-29T02:49:17;14.65;;;8.70;;
51949;SDS011;37974;53.218;6.640;2023-07-29T02:51:42;11.48;;;7.70;;
51949;SDS011;37974;53.218;6.640;2023-07-29T02:54:08;13.65;;;8.20;;
51949;SDS011;37974;53.218;6.640;2023-07-29T02:56:34;13.05;;;7.80;;
51949;SDS011;37974;53.218;6.640;2023-07-29T02:59:00;12.40;;;7.90;;
51949;SDS011;37974;53.218;6.640;2023-07-29T03:01:26;13.73;;;8.52;;
51949;SDS011;37974;53.218;6.640;2023-07-29T03:03:52;12.15;;;8.23;;
51949;SDS011;37974;53.218;6.640;2023-07-29T03:06:18;14.90;;;7.88;;
51949;SDS011;37974;53.218;6.640;2023-07-29T03:08:44;14.35;;;7.50;;
51949;SDS011;37974;53.218;6.640;2023-07-29T03:11:13;13.02;;;7.95;;
51949;SDS011;37974;53.218;6.640;2023-07-29T03:13:40;11.05;;;7.28;;
51949;SDS011;37974;53.218;6.640;2023-07-29T03:16:07;19.42;;;7.97;;
51949;SDS011;37974;53.218;6.640;2023-07-29T03:18:37;13.40;;;7.60;;
51949;SDS011;37974;53.218;6.640;2023-07-29T03:21:03;13.57;;;7.70;;
51949;SDS011;37974;53.218;6.640;2023-07-29T03:23:29;16.13;;;7.85;;
51949;SDS011;37974;53.218;6.640;2023-07-29T03:25:56;11.88;;;7.82;;
51949;SDS011;37974;53.218;6.640;2023-07-29T03:28:27;9.40;;;7.00;;
51949;SDS011;37974;53.218;6.640;2023-07-29T03:30:54;12.30;;;7.82;;
51949;SDS011;37974;53.218;6.640;2023-07-29T03:33:21;10.43;;;7.30;;
51949;SDS011;37974;53.218;6.640;2023-07-29T03:35:48;12.50;;;7.55;;
51949;SDS011;37974;53.218;6.640;2023-07-29T03:38:14;12.77;;;7.32;;
51949;SDS011;37974;53.218;6.640;2023-07-29T03:40:40;16.05;;;7.50;;
51949;SDS011;37974;53.218;6.640;2023-07-29T03:43:06;11.82;;;7.57;;
51949;SDS011;37974;53.218;6.640;2023-07-29T03:45:32;11.00;;;7.13;;
51949;SDS011;37974;53.218;6.640;2023-07-29T03:47:59;12.30;;;7.15;;
51949;SDS011;37974;53.218;6.640;2023-07-29T03:50:24;13.82;;;7.55;;
51949;SDS011;37974;53.218;6.640;2023-07-29T03:52:50;13.57;;;7.40;;
51949;SDS011;37974;53.218;6.640;2023-07-29T03:55:16;14.73;;;7.43;;
51949;SDS011;37974;53.218;6.640;2023-07-29T03:57:42;8.82;;;6.38;;
51949;SDS011;37974;53.218;6.640;2023-07-29T04:00:08;9.40;;;6.60;;
51949;SDS011;37974;53.218;6.640;2023-07-29T04:02:36;10.68;;;6.90;;
51949;SDS011;37974;53.218;6.640;2023-07-29T04:05:03;9.65;;;6.68;;
51949;SDS011;37974;53.218;6.640;2023-07-29T04:07:30;16.00;;;7.07;;
51949;SDS011;37974;53.218;6.640;2023-07-29T04:09:56;10.43;;;6.45;;
51949;SDS011;37974;53.218;6.640;2023-07-29T04:12:23;12.00;;;6.80;;
51949;SDS011;37974;53.218;6.640;2023-07-29T04:14:49;12.25;;;6.20;;
51949;SDS011;37974;53.218;6.640;2023-07-29T04:17:15;9.82;;;6.90;;
51949;SDS011;37974;53.218;6.640;2023-07-29T04:19:41;11.02;;;6.30;;
51949;SDS011;37974;53.218;6.640;2023-07-29T04:22:06;11.50;;;5.95;;
51949;SDS011;37974;53.218;6.640;2023-07-29T04:24:32;9.93;;;6.07;;
51949;SDS011;37974;53.218;6.640;2023-07-29T04:26:58;13.95;;;6.30;;
51949;SDS011;37974;53.218;6.640;2023-07-29T04:29:23;11.82;;;6.43;;
51949;SDS011;37974;53.218;6.640;2023-07-29T04:31:50;14.30;;;6.55;;
51949;SDS011;37974;53.218;6.640;2023-07-29T04:34:16;13.32;;;7.30;;
51949;SDS011;37974;53.218;6.640;2023-07-29T04:36:43;15.02;;;7.38;;
51949;SDS011;37974;53.218;6.640;2023-07-29T04:39:08;14.25;;;7.07;;
51949;SDS011;37974;53.218;6.640;2023-07-29T04:41:34;12.15;;;6.80;;
51949;SDS011;37974;53.218;6.640;2023-07-29T04:44:00;9.95;;;5.97;;
51949;SDS011;37974;53.218;6.640;2023-07-29T04:46:25;12.10;;;6.60;;
51949;SDS011;37974;53.218;6.640;2023-07-29T04:48:51;11.55;;;6.32;;
51949;SDS011;37974;53.218;6.640;2023-07-29T04:51:17;13.68;;;6.22;;
51949;SDS011;37974;53.218;6.640;2023-07-29T04:53:42;9.13;;;4.60;;
51949;SDS011;37974;53.218;6.640;2023-07-29T04:56:08;7.28;;;3.42;;
51949;SDS011;37974;53.218;6.640;2023-07-29T04:58:34;8.40;;;3.50;;
51949;SDS011;37974;53.218;6.640;2023-07-29T05:01:01;8.57;;;3.58;;
51949;SDS011;37974;53.218;6.640;2023-07-29T05:03:27;10.10;;;4.13;;
51949;SDS011;37974;53.218;6.640;2023-07-29T05:05:53;10.90;;;4.70;;
51949;SDS011;37974;53.218;6.640;2023-07-29T05:08:20;10.20;;;4.95;;
51949;SDS011;37974;53.218;6.640;2023-07-29T05:10:50;10.30;;;4.95;;
51949;SDS011;37974;53.218;6.640;2023-07-29T05:13:16;8.77;;;4.20;;
51949;SDS011;37974;53.218;6.640;2023-07-29T05:15:42;11.43;;;4.35;;
51949;SDS011;37974;53.218;6.640;2023-07-29T05:18:08;9.77;;;4.40;;
51949;SDS011;37974;53.218;6.640;2023-07-29T05:20:34;9.27;;;4.03;;
51949;SDS011;37974;53.218;6.640;2023-07-29T05:22:59;13.23;;;3.70;;
51949;SDS011;37974;53.218;6.640;2023-07-29T05:25:26;8.77;;;2.92;;
51949;SDS011;37974;53.218;6.640;2023-07-29T05:27:51;10.18;;;3.30;;
51949;SDS011;37974;53.218;6.640;2023-07-29T05:30:17;7.03;;;2.85;;
51949;SDS011;37974;53.218;6.640;2023-07-29T05:32:43;9.35;;;2.90;;
51949;SDS011;37974;53.218;6.640;2023-07-29T05:35:09;9.00;;;2.90;;
51949;SDS011;37974;53.218;6.640;2023-07-29T05:37:37;8.10;;;2.67;;
51949;SDS011;37974;53.218;6.640;2023-07-29T05:40:04;5.68;;;2.70;;
51949;SDS011;37974;53.218;6.640;2023-07-29T05:42:32;8.02;;;2.67;;
51949;SDS011;37974;53.218;6.640;2023-07-29T05:44:57;5.10;;;2.60;;
51949;SDS011;37974;53.218;6.640;2023-07-29T05:47:23;6.47;;;2.95;;
51949;SDS011;37974;53.218;6.640;2023-07-29T05:49:49;5.40;;;3.05;;
51949;SDS011;37974;53.218;6.640;2023-07-29T05:52:15;7.90;;;3.03;;
51949;SDS011;37974;53.218;6.640;2023-07-29T05:54:44;7.15;;;3.15;;
51949;SDS011;37974;53.218;6.640;2023-07-29T05:57:10;7.72;;;3.10;;
51949;SDS011;37974;53.218;6.640;2023-07-29T05:59:36;8.75;;;3.53;;
51949;SDS011;37974;53.218;6.640;2023-07-29T06:02:03;11.15;;;3.50;;
51949;SDS011;37974;53.218;6.640;2023-07-29T06:04:29;9.88;;;3.85;;
51949;SDS011;37974;53.218;6.640;2023-07-29T06:06:55;9.95;;;3.67;;
51949;SDS011;37974;53.218;6.640;2023-07-29T06:09:21;8.60;;;2.80;;
51949;SDS011;37974;53.218;6.640;2023-07-29T06:11:49;6.28;;;2.63;;
51949;SDS011;37974;53.218;6.640;2023-07-29T06:14:15;12.07;;;2.85;;
51949;SDS011;37974;53.218;6.640;2023-07-29T06:16:41;9.77;;;3.20;;
51949;SDS011;37974;53.218;6.640;2023-07-29T06:19:07;7.18;;;2.60;;
51949;SDS011;37974;53.218;6.640;2023-07-29T06:21:34;5.10;;;2.40;;
51949;SDS011;37974;53.218;6.640;2023-07-29T06:24:00;6.82;;;2.33;;
51949;SDS011;37974;53.218;6.640;2023-07-29T06:26:26;6.43;;;2.33;;
51949;SDS011;37974;53.218;6.640;2023-07-29T06:28:53;7.43;;;3.05;;
51949;SDS011;37974;53.218;6.640;2023-07-29T06:31:19;6.30;;;2.72;;
51949;SDS011;37974;53.218;6.640;2023-07-29T06:33:44;5.85;;;2.63;;
51949;SDS011;37974;53.218;6.640;2023-07-29T06:36:11;8.82;;;2.63;;
51949;SDS011;37974;53.218;6.640;2023-07-29T06:38:37;8.60;;;2.50;;
51949;SDS011;37974;53.218;6.640;2023-07-29T06:41:03;9.13;;;2.50;;
51949;SDS011;37974;53.218;6.640;2023-07-29T06:43:29;7.03;;;2.50;;
51949;SDS011;37974;53.218;6.640;2023-07-29T06:45:55;14.18;;;2.90;;
51949;SDS011;37974;53.218;6.640;2023-07-29T06:48:21;13.27;;;2.80;;
51949;SDS011;37974;53.218;6.640;2023-07-29T06:50:47;12.82;;;2.80;;
51949;SDS011;37974;53.218;6.640;2023-07-29T06:53:13;9.38;;;2.53;;
51949;SDS011;37974;53.218;6.640;2023-07-29T06:55:38;9.43;;;2.45;;
51949;SDS011;37974;53.218;6.640;2023-07-29T06:58:04;10.80;;;2.78;;
51949;SDS011;37974;53.218;6.640;2023-07-29T07:00:30;9.25;;;2.80;;
51949;SDS011;37974;53.218;6.640;2023-07-29T07:02:56;9.60;;;2.60;;
51949;SDS011;37974;53.218;6.640;2023-07-29T07:05:22;12.20;;;2.92;;
51949;SDS011;37974;53.218;6.640;2023-07-29T07:07:47;11.02;;;2.58;;
51949;SDS011;37974;53.218;6.640;2023-07-29T07:10:13;11.32;;;2.92;;
51949;SDS011;37974;53.218;6.640;2023-07-29T07:12:39;7.75;;;2.67;;
51949;SDS011;37974;53.218;6.640;2023-07-29T07:15:05;12.18;;;3.08;;
51949;SDS011;37974;53.218;6.640;2023-07-29T07:17:31;11.65;;;3.50;;
51949;SDS011;37974;53.218;6.640;2023-07-29T07:19:57;8.63;;;3.20;;
51949;SDS011;37974;53.218;6.640;2023-07-29T07:22:24;13.35;;;3.03;;
51949;SDS011;37974;53.218;6.640;2023-07-29T07:24:49;7.70;;;2.83;;
51949;SDS011;37974;53.218;6.640;2023-07-29T07:27:15;9.05;;;3.05;;
51949;SDS011;37974;53.218;6.640;2023-07-29T07:29:41;11.40;;;3.30;;
51949;SDS011;37974;53.218;6.640;2023-07-29T07:32:07;8.65;;;3.42;;
51949;SDS011;37974;53.218;6.640;2023-07-29T07:34:32;14.35;;;3.63;;
51949;SDS011;37974;53.218;6.640;2023-07-29T07:36:59;8.63;;;3.00;;
51949;SDS011;37974;53.218;6.640;2023-07-29T07:39:25;9.90;;;3.40;;
51949;SDS011;37974;53.218;6.640;2023-07-29T07:41:51;7.88;;;3.10;;
51949;SDS011;37974;53.218;6.640;2023-07-29T07:44:17;8.40;;;3.35;;
51949;SDS011;37974;53.218;6.640;2023-07-29T07:46:44;11.10;;;2.78;;
51949;SDS011;37974;53.218;6.640;2023-07-29T07:49:10;6.95;;;3.03;;
51949;SDS011;37974;53.218;6.640;2023-07-29T07:51:37;9.45;;;3.25;;
51949;SDS011;37974;53.218;6.640;2023-07-29T07:54:03;10.48;;;3.30;;
51949;SDS011;37974;53.218;6.640;2023-07-29T07:56:29;11.52;;;3.30;;
51949;SDS011;37974;53.218;6.640;2023-07-29T07:58:55;7.80;;;2.70;;
51949;SDS011;37974;53.218;6.640;2023-07-29T08:01:20;7.63;;;2.80;;
51949;SDS011;37974;53.218;6.640;2023-07-29T08:03:46;6.97;;;2.85;;
51949;SDS011;37974;53.218;6.640;2023-07-29T08:06:12;7.63;;;3.35;;
51949;SDS011;37974;53.218;6.640;2023-07-29T08:08:37;14.40;;;3.58;;
51949;SDS011;37974;53.218;6.640;2023-07-29T08:11:03;9.80;;;3.53;;
51949;SDS011;37974;53.218;6.640;2023-07-29T08:13:29;7.60;;;3.35;;
51949;SDS011;37974;53.218;6.640;2023-07-29T08:15:54;8.45;;;2.85;;
51949;SDS011;37974;53.218;6.640;2023-07-29T08:18:20;9.27;;;2.67;;
51949;SDS011;37974;53.218;6.640;2023-07-29T08:20:53;8.55;;;2.78;;
51949;SDS011;37974;53.218;6.640;2023-07-29T08:23:28;8.45;;;3.33;;
51949;SDS011;37974;53.218;6.640;2023-07-29T08:25:58;10.73;;;2.78;;
51949;SDS011;37974;53.218;6.640;2023-07-29T08:28:30;7.43;;;2.90;;
51949;SDS011;37974;53.218;6.640;2023-07-29T08:31:00;9.32;;;3.17;;
51949;SDS011;37974;53.218;6.640;2023-07-29T08:33:26;9.32;;;2.50;;
51949;SDS011;37974;53.218;6.640;2023-07-29T08:35:52;7.07;;;2.15;;
51949;SDS011;37974;53.218;6.640;2023-07-29T08:38:18;7.95;;;2.70;;
51949;SDS011;37974;53.218;6.640;2023-07-29T08:43:32;9.27;;;1.90;;
51949;SDS011;37974;53.218;6.640;2023-07-29T08:45:58;6.03;;;1.92;;
51949;SDS011;37974;53.218;6.640;2023-07-29T08:51:07;11.05;;;2.63;;
51949;SDS011;37974;53.218;6.640;2023-07-29T08:53:34;8.93;;;2.10;;
51949;SDS011;37974;53.218;6.640;2023-07-29T08:56:00;12.05;;;2.10;;
51949;SDS011;37974;53.218;6.640;2023-07-29T08:58:26;7.95;;;2.10;;
51949;SDS011;37974;53.218;6.640;2023-07-29T09:00:53;9.45;;;2.17;;
51949;SDS011;37974;53.218;6.640;2023-07-29T09:03:19;6.80;;;1.73;;
51949;SDS011;37974;53.218;6.640;2023-07-29T09:05:46;6.13;;;2.20;;
51949;SDS011;37974;53.218;6.640;2023-07-29T09:08:12;11.75;;;2.20;;
51949;SDS011;37974;53.218;6.640;2023-07-29T09:10:39;9.35;;;2.50;;
51949;SDS011;37974;53.218;6.640;2023-07-29T09:13:05;12.60;;;2.60;;
51949;SDS011;37974;53.218;6.640;2023-07-29T09:15:32;7.95;;;2.38;;
51949;SDS011;37974;53.218;6.640;2023-07-29T09:20:58;8.20;;;2.40;;
51949;SDS011;37974;53.218;6.640;2023-07-29T09:23:27;7.60;;;1.80;;
51949;SDS011;37974;53.218;6.640;2023-07-29T09:26:02;6.88;;;1.95;;
51949;SDS011;37974;53.218;6.640;2023-07-29T09:28:32;7.43;;;2.00;;
51949;SDS011;37974;53.218;6.640;2023-07-29T09:30:59;7.85;;;2.03;;
51949;SDS011;37974;53.218;6.640;2023-07-29T09:33:25;7.93;;;1.80;;
51949;SDS011;37974;53.218;6.640;2023-07-29T09:35:51;7.18;;;1.65;;
51949;SDS011;37974;53.218;6.640;2023-07-29T09:38:17;4.07;;;1.25;;
51949;SDS011;37974;53.218;6.640;2023-07-29T09:40:43;7.68;;;1.70;;
51949;SDS011;37974;53.218;6.640;2023-07-29T09:43:10;5.90;;;1.58;;
51949;SDS011;37974;53.218;6.640;2023-07-29T09:45:36;4.43;;;1.40;;
51949;SDS011;37974;53.218;6.640;2023-07-29T09:48:03;11.60;;;1.83;;
51949;SDS011;37974;53.218;6.640;2023-07-29T09:50:35;10.57;;;1.40;;
51949;SDS011;37974;53.218;6.640;2023-07-29T09:53:01;6.82;;;1.00;;
51949;SDS011;37974;53.218;6.640;2023-07-29T09:55:28;4.47;;;1.10;;
51949;SDS011;37974;53.218;6.640;2023-07-29T09:57:58;5.57;;;1.40;;
51949;SDS011;37974;53.218;6.640;2023-07-29T10:00:30;6.15;;;1.20;;
51949;SDS011;37974;53.218;6.640;2023-07-29T10:03:06;4.47;;;0.90;;
51949;SDS011;37974;53.218;6.640;2023-07-29T10:05:32;5.30;;;1.00;;
51949;SDS011;37974;53.218;6.640;2023-07-29T10:07:59;8.27;;;1.10;;
51949;SDS011;37974;53.218;6.640;2023-07-29T10:10:27;4.97;;;1.35;;
51949;SDS011;37974;53.218;6.640;2023-07-29T10:12:53;7.68;;;1.30;;
51949;SDS011;37974;53.218;6.640;2023-07-29T10:15:22;7.90;;;1.13;;
51949;SDS011;37974;53.218;6.640;2023-07-29T10:17:49;7.20;;;1.30;;
51949;SDS011;37974;53.218;6.640;2023-07-29T10:20:16;8.85;;;1.45;;
51949;SDS011;37974;53.218;6.640;2023-07-29T10:22:43;5.05;;;1.17;;
51949;SDS011;37974;53.218;6.640;2023-07-29T10:25:23;6.40;;;1.13;;
51949;SDS011;37974;53.218;6.640;2023-07-29T10:27:56;7.78;;;1.25;;
51949;SDS011;37974;53.218;6.640;2023-07-29T10:30:29;5.03;;;1.05;;
51949;SDS011;37974;53.218;6.640;2023-07-29T10:32:57;5.95;;;1.00;;
51949;SDS011;37974;53.218;6.640;2023-07-29T10:35:35;4.90;;;1.20;;
51949;SDS011;37974;53.218;6.640;2023-07-29T10:38:02;4.85;;;1.02;;
51949;SDS011;37974;53.218;6.640;2023-07-29T10:40:46;3.83;;;1.15;;
51949;SDS011;37974;53.218;6.640;2023-07-29T10:43:18;3.58;;;0.82;;
51949;SDS011;37974;53.218;6.640;2023-07-29T10:45:48;5.28;;;0.98;;
51949;SDS011;37974;53.218;6.640;2023-07-29T10:54:09;6.78;;;0.68;;
51949;SDS011;37974;53.218;6.640;2023-07-29T10:56:37;7.70;;;1.02;;
51949;SDS011;37974;53.218;6.640;2023-07-29T11:01:40;7.20;;;1.00;;
51949;SDS011;37974;53.218;6.640;2023-07-29T11:07:52;4.50;;;1.30;;
51949;SDS011;37974;53.218;6.640;2023-07-29T11:10:00;4.13;;;1.30;;
51949;SDS011;37974;53.218;6.640;2023-07-29T11:17:40;6.13;;;1.55;;
51949;SDS011;37974;53.218;6.640;2023-07-29T11:20:08;14.48;;;1.58;;
51949;SDS011;37974;53.218;6.640;2023-07-29T11:22:35;7.22;;;1.10;;
51949;SDS011;37974;53.218;6.640;2023-07-29T11:25:03;6.93;;;1.25;;
51949;SDS011;37974;53.218;6.640;2023-07-29T11:27:32;4.10;;;1.30;;
51949;SDS011;37974;53.218;6.640;2023-07-29T11:30:01;5.05;;;0.88;;
51949;SDS011;37974;53.218;6.640;2023-07-29T11:32:37;5.38;;;1.00;;
51949;SDS011;37974;53.218;6.640;2023-07-29T11:35:14;4.97;;;0.80;;
51949;SDS011;37974;53.218;6.640;2023-07-29T11:37:42;7.00;;;0.90;;
51949;SDS011;37974;53.218;6.640;2023-07-29T11:40:15;4.22;;;0.88;;
51949;SDS011;37974;53.218;6.640;2023-07-29T11:42:49;2.75;;;0.70;;
51949;SDS011;37974;53.218;6.640;2023-07-29T11:45:15;4.30;;;1.33;;
51949;SDS011;37974;53.218;6.640;2023-07-29T11:47:42;4.28;;;1.20;;
51949;SDS011;37974;53.218;6.640;2023-07-29T11:50:08;3.97;;;1.10;;
51949;SDS011;37974;53.218;6.640;2023-07-29T11:52:39;6.43;;;1.00;;
51949;SDS011;37974;53.218;6.640;2023-07-29T11:55:06;9.85;;;1.35;;
51949;SDS011;37974;53.218;6.640;2023-07-29T11:57:36;6.07;;;1.40;;
51949;SDS011;37974;53.218;6.640;2023-07-29T12:00:03;3.70;;;1.33;;
51949;SDS011;37974;53.218;6.640;2023-07-29T12:02:31;10.77;;;1.40;;
51949;SDS011;37974;53.218;6.640;2023-07-29T12:04:58;47.85;;;3.20;;
51949;SDS011;37974;53.218;6.640;2023-07-29T12:07:24;16.48;;;1.92;;
51949;SDS011;37974;53.218;6.640;2023-07-29T12:09:50;5.95;;;1.30;;
51949;SDS011;37974;53.218;6.640;2023-07-29T12:12:17;9.02;;;1.50;;
51949;SDS011;37974;53.218;6.640;2023-07-29T12:14:46;6.97;;;1.70;;
51949;SDS011;37974;53.218;6.640;2023-07-29T12:17:12;5.07;;;1.30;;
51949;SDS011;37974;53.218;6.640;2023-07-29T12:19:38;5.88;;;1.27;;
51949;SDS011;37974;53.218;6.640;2023-07-29T12:22:06;11.45;;;1.73;;
51949;SDS011;37974;53.218;6.640;2023-07-29T12:24:33;6.50;;;1.40;;
51949;SDS011;37974;53.218;6.640;2023-07-29T12:27:00;8.20;;;1.52;;
51949;SDS011;37974;53.218;6.640;2023-07-29T12:29:26;7.38;;;2.40;;
51949;SDS011;37974;53.218;6.640;2023-07-29T12:31:59;5.97;;;2.05;;
51949;SDS011;37974;53.218;6.640;2023-07-29T12:34:27;6.93;;;1.60;;
51949;SDS011;37974;53.218;6.640;2023-07-29T12:36:54;8.88;;;2.08;;
51949;SDS011;37974;53.218;6.640;2023-07-29T12:41:48;6.13;;;1.70;;
51949;SDS011;37974;53.218;6.640;2023-07-29T12:44:15;5.90;;;1.73;;
51949;SDS011;37974;53.218;6.640;2023-07-29T12:46:41;4.85;;;1.30;;
51949;SDS011;37974;53.218;6.640;2023-07-29T12:49:07;7.03;;;1.55;;
51949;SDS011;37974;53.218;6.640;2023-07-29T12:51:33;6.18;;;1.42;;
51949;SDS011;37974;53.218;6.640;2023-07-29T12:53:59;6.38;;;1.88;;
51949;SDS011;37974;53.218;6.640;2023-07-29T12:56:25;6.57;;;1.75;;
51949;SDS011;37974;53.218;6.640;2023-07-29T12:58:51;10.75;;;2.22;;
51949;SDS011;37974;53.218;6.640;2023-07-29T13:01:17;7.95;;;1.05;;
51949;SDS011;37974;53.218;6.640;2023-07-29T13:03:44;9.85;;;1.73;;
51949;SDS011;37974;53.218;6.640;2023-07-29T13:06:10;6.10;;;1.20;;
51949;SDS011;37974;53.218;6.640;2023-07-29T13:08:36;8.07;;;1.98;;
51949;SDS011;37974;53.218;6.640;2023-07-29T13:11:02;6.07;;;1.20;;
51949;SDS011;37974;53.218;6.640;2023-07-29T13:13:28;6.82;;;2.13;;
51949;SDS011;37974;53.218;6.640;2023-07-29T13:15:54;9.57;;;1.05;;
51949;SDS011;37974;53.218;6.640;2023-07-29T13:18:20;6.20;;;1.40;;
51949;SDS011;37974;53.218;6.640;2023-07-29T13:20:46;8.50;;;1.63;;
51949;SDS011;37974;53.218;6.640;2023-07-29T13:23:12;9.13;;;1.40;;
51949;SDS011;37974;53.218;6.640;2023-07-29T13:25:38;3.42;;;1.27;;
51949;SDS011;37974;53.218;6.640;2023-07-29T13:28:04;7.47;;;1.85;;
51949;SDS011;37974;53.218;6.640;2023-07-29T13:30:30;5.80;;;1.50;;
51949;SDS011;37974;53.218;6.640;2023-07-29T13:32:56;12.07;;;2.35;;
51949;SDS011;37974;53.218;6.640;2023-07-29T13:35:24;4.20;;;1.55;;
51949;SDS011;37974;53.218;6.640;2023-07-29T13:37:50;5.85;;;1.42;;
51949;SDS011;37974;53.218;6.640;2023-07-29T13:40:16;6.25;;;1.40;;
51949;SDS011;37974;53.218;6.640;2023-07-29T13:42:42;7.72;;;1.73;;
51949;SDS011;37974;53.218;6.640;2023-07-29T13:45:07;7.25;;;1.40;;
51949;SDS011;37974;53.218;6.640;2023-07-29T13:47:34;4.28;;;1.13;;
51949;SDS011;37974;53.218;6.640;2023-07-29T13:49:59;5.97;;;1.45;;
51949;SDS011;37974;53.218;6.640;2023-07-29T13:52:26;6.85;;;1.40;;
51949;SDS011;37974;53.218;6.640;2023-07-29T13:54:51;7.63;;;1.23;;
51949;SDS011;37974;53.218;6.640;2023-07-29T13:57:17;6.60;;;1.23;;
51949;SDS011;37974;53.218;6.640;2023-07-29T13:59:43;3.75;;;1.20;;
51949;SDS011;37974;53.218;6.640;2023-07-29T14:02:09;8.05;;;1.30;;
51949;SDS011;37974;53.218;6.640;2023-07-29T14:04:34;6.78;;;1.35;;
51949;SDS011;37974;53.218;6.640;2023-07-29T14:07:00;7.28;;;1.25;;
51949;SDS011;37974;53.218;6.640;2023-07-29T14:09:26;5.88;;;1.80;;
51949;SDS011;37974;53.218;6.640;2023-07-29T14:11:53;5.90;;;1.40;;
51949;SDS011;37974;53.218;6.640;2023-07-29T14:14:19;6.68;;;1.60;;
51949;SDS011;37974;53.218;6.640;2023-07-29T14:16:45;4.35;;;1.40;;
51949;SDS011;37974;53.218;6.640;2023-07-29T14:19:12;5.38;;;1.10;;
51949;SDS011;37974;53.218;6.640;2023-07-29T14:21:38;5.45;;;1.48;;
51949;SDS011;37974;53.218;6.640;2023-07-29T14:24:04;7.72;;;1.73;;
51949;SDS011;37974;53.218;6.640;2023-07-29T14:26:30;5.30;;;1.63;;
51949;SDS011;37974;53.218;6.640;2023-07-29T14:28:56;6.97;;;1.50;;
51949;SDS011;37974;53.218;6.640;2023-07-29T14:31:22;5.10;;;1.45;;
51949;SDS011;37974;53.218;6.640;2023-07-29T14:33:48;7.28;;;1.92;;
51949;SDS011;37974;53.218;6.640;2023-07-29T14:36:15;6.85;;;1.73;;
51949;SDS011;37974;53.218;6.640;2023-07-29T14:38:41;8.25;;;1.90;;
51949;SDS011;37974;53.218;6.640;2023-07-29T14:41:07;7.13;;;1.80;;
51949;SDS011;37974;53.218;6.640;2023-07-29T14:43:33;6.07;;;1.42;;
51949;SDS011;37974;53.218;6.640;2023-07-29T14:46:03;8.07;;;1.60;;
51949;SDS011;37974;53.218;6.640;2023-07-29T14:48:29;7.72;;;1.73;;
51949;SDS011;37974;53.218;6.640;2023-07-29T14:50:54;7.18;;;1.60;;
51949;SDS011;37974;53.218;6.640;2023-07-29T14:53:20;4.88;;;1.60;;
51949;SDS011;37974;53.218;6.640;2023-07-29T14:55:46;7.18;;;1.60;;
51949;SDS011;37974;53.218;6.640;2023-07-29T14:58:13;9.85;;;1.70;;
51949;SDS011;37974;53.218;6.640;2023-07-29T15:00:39;8.57;;;1.55;;
51949;SDS011;37974;53.218;6.640;2023-07-29T15:03:05;8.27;;;1.85;;
51949;SDS011;37974;53.218;6.640;2023-07-29T15:05:35;9.05;;;1.70;;
51949;SDS011;37974;53.218;6.640;2023-07-29T15:08:01;5.35;;;1.50;;
51949;SDS011;37974;53.218;6.640;2023-07-29T15:10:26;5.70;;;1.60;;
51949;SDS011;37974;53.218;6.640;2023-07-29T15:12:58;7.03;;;1.42;;
51949;SDS011;37974;53.218;6.640;2023-07-29T15:15:24;5.97;;;1.70;;